createdAt,value
2022-11-05T00:00:34.212Z,7.75
2022-11-05T00:03:19.215Z,8.80
2022-11-05T00:06:10.631Z,7.47
2022-11-05T00:08:55.984Z,8.15
2022-11-05T00:11:42.702Z,8.18
2022-11-05T00:14:27.937Z,7.53
2022-11-05T00:16:54.329Z,7.50
2022-11-05T00:19:23.005Z,7.90
2022-11-05T00:22:08.040Z,6.05
2022-11-05T00:24:55.636Z,6.28
2022-11-05T00:27:22.034Z,6.93
2022-11-05T00:29:53.129Z,6.40
2022-11-05T00:32:21.838Z,6.60
2022-11-05T00:34:48.362Z,5.75
2022-11-05T00:37:14.718Z,6.63
2022-11-05T00:39:41.640Z,6.78
2022-11-05T00:42:26.563Z,5.90
2022-11-05T00:45:01.659Z,5.88
2022-11-05T00:47:46.917Z,5.47
2022-11-05T00:50:13.745Z,5.03
2022-11-05T00:52:55.755Z,5.65
2022-11-05T00:55:25.198Z,6.32
2022-11-05T00:57:52.168Z,4.82
2022-11-05T01:00:23.819Z,6.53
2022-11-05T01:02:50.477Z,6.40
2022-11-05T01:05:17.568Z,6.57
2022-11-05T01:07:44.403Z,6.05
2022-11-05T01:10:10.894Z,6.95
2022-11-05T01:12:37.350Z,6.90
2022-11-05T01:15:04.246Z,5.00
2022-11-05T01:17:30.732Z,7.57
2022-11-05T01:20:02.018Z,6.57
2022-11-05T01:22:33.042Z,7.03
2022-11-05T01:24:59.524Z,5.65
2022-11-05T01:27:28.981Z,6.70
2022-11-05T01:29:55.443Z,7.18
2022-11-05T01:32:22.013Z,6.97
2022-11-05T01:34:49.343Z,7.40
2022-11-05T01:37:15.854Z,7.05
2022-11-05T01:39:42.276Z,5.65
2022-11-05T01:42:21.048Z,4.85
2022-11-05T01:44:56.516Z,6.45
2022-11-05T01:47:54.496Z,6.50
2022-11-05T01:50:20.908Z,4.30
2022-11-05T01:52:49.777Z,6.13
2022-11-05T01:55:23.945Z,5.70
2022-11-05T01:57:52.897Z,5.82
2022-11-05T02:00:19.470Z,6.13
2022-11-05T02:02:48.713Z,5.10
2022-11-05T02:05:15.958Z,6.00
2022-11-05T02:07:48.742Z,6.00
2022-11-05T02:10:17.946Z,5.72
2022-11-05T02:12:48.213Z,6.57
2022-11-05T02:15:18.152Z,6.82
2022-11-05T02:17:54.979Z,6.18
2022-11-05T02:20:38.567Z,5.28
2022-11-05T02:23:22.998Z,5.90
2022-11-05T02:26:17.367Z,5.28
2022-11-05T02:29:29.334Z,5.35
2022-11-05T02:32:30.879Z,5.82
2022-11-05T02:35:00.208Z,7.40
2022-11-05T02:37:40.649Z,5.70
2022-11-05T02:40:52.602Z,5.38
2022-11-05T02:43:31.114Z,6.38
2022-11-05T02:46:13.788Z,6.10
2022-11-05T02:48:45.459Z,4.97
2022-11-05T02:51:15.240Z,5.88
2022-11-05T02:54:11.877Z,5.38
2022-11-05T02:56:44.201Z,5.47
2022-11-05T02:59:10.656Z,5.93
2022-11-05T03:01:39.064Z,5.25
2022-11-05T03:04:09.312Z,5.40
2022-11-05T03:06:44.418Z,4.80
2022-11-05T03:09:27.250Z,5.72
2022-11-05T03:12:32.467Z,5.35
2022-11-05T03:15:26.151Z,5.80
2022-11-05T03:17:58.345Z,5.35
2022-11-05T03:20:58.948Z,5.75
2022-11-05T03:23:42.589Z,5.80
2022-11-05T03:26:35.726Z,5.95
2022-11-05T03:29:24.186Z,6.10
2022-11-05T03:31:54.222Z,6.43
2022-11-05T03:34:29.328Z,5.88
2022-11-05T03:37:02.536Z,6.22
2022-11-05T03:39:37.627Z,6.70
2022-11-05T03:42:07.643Z,6.40
2022-11-05T03:44:38.947Z,7.00
2022-11-05T03:47:20.983Z,7.18
2022-11-05T03:49:57.756Z,6.80
2022-11-05T03:52:28.987Z,7.45
2022-11-05T03:54:55.887Z,8.00
2022-11-05T03:57:36.346Z,7.75
2022-11-05T04:00:07.509Z,7.32
2022-11-05T04:02:38.450Z,7.05
2022-11-05T04:05:05.516Z,8.10
2022-11-05T04:07:50.278Z,7.78
2022-11-05T04:10:34.870Z,9.23
2022-11-05T04:13:19.721Z,8.77
2022-11-05T04:16:05.019Z,8.52
2022-11-05T04:18:31.534Z,7.43
2022-11-05T04:21:16.558Z,7.07
2022-11-05T04:24:18.294Z,8.48
2022-11-05T04:26:45.314Z,7.82
2022-11-05T04:29:33.048Z,7.03
2022-11-05T04:32:01.662Z,7.47
2022-11-05T04:34:28.081Z,6.70
2022-11-05T04:36:54.564Z,6.25
2022-11-05T04:39:21.363Z,6.72
2022-11-05T04:41:50.929Z,6.85
2022-11-05T04:44:17.465Z,7.43
2022-11-05T04:46:43.947Z,6.38
2022-11-05T04:49:12.570Z,7.03
2022-11-05T04:51:39.066Z,7.00
2022-11-05T04:54:05.551Z,6.63
2022-11-05T04:56:32.063Z,6.68
2022-11-05T04:58:58.470Z,6.10
2022-11-05T05:01:25.505Z,6.10
2022-11-05T05:03:53.876Z,5.63
2022-11-05T05:06:21.565Z,6.20
2022-11-05T05:08:49.631Z,5.88
2022-11-05T05:11:18.763Z,5.63
2022-11-05T05:13:45.472Z,5.20
2022-11-05T05:16:24.223Z,5.22
2022-11-05T05:18:51.489Z,4.85
2022-11-05T05:21:38.245Z,5.03
2022-11-05T05:24:24.925Z,5.10
2022-11-05T05:26:53.642Z,4.63
2022-11-05T05:29:20.023Z,4.25
2022-11-05T05:31:48.795Z,4.05
2022-11-05T05:34:15.326Z,4.43
2022-11-05T05:36:41.741Z,4.20
2022-11-05T05:39:10.801Z,3.78
2022-11-05T05:41:37.304Z,4.03
2022-11-05T05:44:05.667Z,3.20
2022-11-05T05:46:36.958Z,3.88
2022-11-05T05:49:07.869Z,3.58
2022-11-05T05:51:37.592Z,4.05
2022-11-05T05:54:04.111Z,4.03
2022-11-05T05:56:30.646Z,3.85
2022-11-05T05:58:59.578Z,3.97
2022-11-05T06:01:28.433Z,4.10
2022-11-05T06:03:54.877Z,3.65
2022-11-05T06:06:21.387Z,3.80
2022-11-05T06:08:50.362Z,3.55
2022-11-05T06:11:16.826Z,3.03
2022-11-05T06:13:45.978Z,3.90
2022-11-05T06:16:12.366Z,4.75
2022-11-05T06:18:39.063Z,3.50
2022-11-05T06:21:11.684Z,4.07
2022-11-05T06:23:40.319Z,3.78
2022-11-05T06:26:12.457Z,3.10
2022-11-05T06:28:42.128Z,8.98
2022-11-05T06:31:10.004Z,6.85
2022-11-05T06:33:37.081Z,5.95
2022-11-05T06:36:04.827Z,6.00
2022-11-05T06:38:36.309Z,16.63
2022-11-05T06:41:09.842Z,7.87
2022-11-05T06:43:41.426Z,6.45
2022-11-05T06:46:08.338Z,4.68
2022-11-05T06:48:35.122Z,4.20
2022-11-05T06:51:04.683Z,4.50
2022-11-05T06:53:31.425Z,4.40
2022-11-05T06:55:57.859Z,5.88
2022-11-05T06:58:24.262Z,5.65
2022-11-05T07:00:53.221Z,4.88
2022-11-05T07:03:19.618Z,5.85
2022-11-05T07:05:48.937Z,5.35
2022-11-05T07:08:16.216Z,4.65
2022-11-05T07:10:42.739Z,3.75
2022-11-05T07:13:09.551Z,3.80
2022-11-05T07:15:37.377Z,5.20
2022-11-05T07:18:09.445Z,5.40
2022-11-05T07:20:35.850Z,5.38
2022-11-05T07:23:05.973Z,7.45
2022-11-05T07:25:33.761Z,9.50
2022-11-05T07:28:00.578Z,10.60
2022-11-05T07:30:27.528Z,8.23
2022-11-05T07:32:53.986Z,8.70
2022-11-05T07:35:23.487Z,9.63
2022-11-05T07:37:51.474Z,7.32
2022-11-05T07:40:21.884Z,8.05
2022-11-05T07:42:51.320Z,6.57
2022-11-05T07:45:18.108Z,10.48
2022-11-05T07:47:51.675Z,11.73
2022-11-05T07:50:19.793Z,8.43
2022-11-05T07:52:47.858Z,6.45
2022-11-05T07:55:15.751Z,6.88
2022-11-05T07:57:50.781Z,6.55
2022-11-05T08:00:22.540Z,6.30
2022-11-05T08:03:12.057Z,7.85
2022-11-05T08:05:41.022Z,8.75
2022-11-05T08:08:09.056Z,9.07
2022-11-05T08:10:39.064Z,6.60
2022-11-05T08:13:06.417Z,10.75
2022-11-05T08:15:33.324Z,10.77
2022-11-05T08:18:00.983Z,9.60
2022-11-05T08:20:27.863Z,7.85
2022-11-05T08:22:54.740Z,12.32
2022-11-05T08:25:21.400Z,7.15
2022-11-05T08:27:48.400Z,12.30
2022-11-05T08:30:14.876Z,9.50
2022-11-05T08:32:41.304Z,8.00
2022-11-05T08:35:07.756Z,4.93
2022-11-05T08:37:36.760Z,6.30
2022-11-05T08:40:05.993Z,6.78
2022-11-05T08:42:32.495Z,6.63
2022-11-05T08:44:58.870Z,6.72
2022-11-05T08:47:25.431Z,5.55
2022-11-05T08:49:51.841Z,6.80
2022-11-05T08:52:18.292Z,4.68
2022-11-05T08:54:44.783Z,4.60
2022-11-05T08:57:14.229Z,6.00
2022-11-05T08:59:40.568Z,5.43
2022-11-05T09:02:07.160Z,5.82
2022-11-05T09:04:33.752Z,6.45
2022-11-05T09:07:00.179Z,5.43
2022-11-05T09:09:26.637Z,6.25
2022-11-05T09:12:11.728Z,6.05
2022-11-05T09:14:39.391Z,5.90
2022-11-05T09:17:15.684Z,4.97
2022-11-05T09:19:42.268Z,6.35
2022-11-05T09:22:08.713Z,6.28
2022-11-05T09:24:37.405Z,6.03
2022-11-05T09:27:03.874Z,5.22
2022-11-05T09:29:30.296Z,5.38
2022-11-05T09:31:56.889Z,6.22
2022-11-05T09:34:23.599Z,5.38
2022-11-05T09:36:49.981Z,4.28
2022-11-05T09:39:16.349Z,4.82
2022-11-05T09:41:46.947Z,5.18
2022-11-05T09:44:18.872Z,4.97
2022-11-05T09:47:06.073Z,5.10
2022-11-05T09:49:44.209Z,6.53
2022-11-05T09:52:16.076Z,7.63
2022-11-05T09:54:42.595Z,8.63
2022-11-05T09:57:18.643Z,8.57
2022-11-05T09:59:47.441Z,11.07
2022-11-05T10:02:25.516Z,7.88
2022-11-05T10:04:56.581Z,6.63
2022-11-05T10:07:28.175Z,6.43
2022-11-05T10:10:05.972Z,6.15
2022-11-05T10:12:39.213Z,7.63
2022-11-05T10:15:20.630Z,6.72
2022-11-05T10:17:53.513Z,7.57
2022-11-05T10:20:33.956Z,11.50
2022-11-05T10:23:18.265Z,6.82
2022-11-05T10:25:54.771Z,6.00
2022-11-05T10:28:24.310Z,6.28
2022-11-05T10:30:59.950Z,6.68
2022-11-05T10:33:48.077Z,6.43
2022-11-05T10:36:20.775Z,6.60
2022-11-05T10:38:47.242Z,6.53
2022-11-05T10:41:33.495Z,5.78
2022-11-05T10:44:31.022Z,6.20
2022-11-05T10:47:42.363Z,5.93
2022-11-05T10:50:18.566Z,6.03
2022-11-05T10:53:03.490Z,5.13
2022-11-05T10:55:34.460Z,5.55
2022-11-05T10:58:10.528Z,5.32
2022-11-05T11:00:37.597Z,5.40
2022-11-05T11:03:25.334Z,5.07
2022-11-05T11:05:59.992Z,6.43
2022-11-05T11:08:27.714Z,4.72
2022-11-05T11:11:06.102Z,5.53
2022-11-05T11:13:57.865Z,5.05
2022-11-05T11:16:27.344Z,4.00
2022-11-05T11:18:54.970Z,3.72
2022-11-05T11:21:23.263Z,3.85
2022-11-05T11:23:58.895Z,4.30
2022-11-05T11:26:33.163Z,3.63
2022-11-05T11:29:05.996Z,3.90
2022-11-05T11:31:39.270Z,4.00
2022-11-05T11:34:43.645Z,5.00
2022-11-05T11:37:31.452Z,5.75
2022-11-05T11:40:04.418Z,6.90
2022-11-05T11:42:34.801Z,6.60
2022-11-05T11:45:14.869Z,5.18
2022-11-05T11:47:47.065Z,5.22
